« Back
NWS Peachtree City, Ga » Text Product » ATL Terminal Aerodrome Forecast


Printer-friendly Version
Current Version              Previous Versions:   1  2  3  4  5  6  7  8  9  

Terminal Aerodrome Forecast

047
FTUS42 KFFC 280900 AAC
TAFATL
TAF AMD
KATL 280930Z 2810/2912 25007KT P6SM VCSH SCT040 BKN070
      TEMPO 2810/2814 5SM -SHRA BKN035
     FM281500 29010G18KT P6SM BKN045
     FM281900 31012G20KT P6SM SCT050
     FM290100 32010KT P6SM SCT100
     FM290900 32007KT P6SM SKC=



USA.gov is the U.S. government's official web portal to all federal, state and local government web resources and services.